sensor_id;sensor_type;location;lat;lon;timestamp;P1;durP1;ratioP1;P2;durP2;ratioP2
71665;SDS011;59503;53.486;10.196;2023-04-25T00:00:15;9.43;;;3.47;;
71665;SDS011;59503;53.486;10.196;2023-04-25T00:02:41;8.13;;;3.40;;
71665;SDS011;59503;53.486;10.196;2023-04-25T00:05:07;10.70;;;4.33;;
71665;SDS011;59503;53.486;10.196;2023-04-25T00:07:33;7.72;;;3.53;;
71665;SDS011;59503;53.486;10.196;2023-04-25T00:09:59;8.20;;;3.20;;
71665;SDS011;59503;53.486;10.196;2023-04-25T00:12:25;8.85;;;3.10;;
71665;SDS011;59503;53.486;10.196;2023-04-25T00:14:53;6.93;;;3.30;;
71665;SDS011;59503;53.486;10.196;2023-04-25T00:17:18;6.57;;;4.00;;
71665;SDS011;59503;53.486;10.196;2023-04-25T00:19:44;10.70;;;3.30;;
71665;SDS011;59503;53.486;10.196;2023-04-25T00:22:11;8.13;;;3.38;;
71665;SDS011;59503;53.486;10.196;2023-04-25T00:24:38;7.25;;;3.33;;
71665;SDS011;59503;53.486;10.196;2023-04-25T00:27:03;10.63;;;4.00;;
71665;SDS011;59503;53.486;10.196;2023-04-25T00:29:29;11.02;;;4.20;;
71665;SDS011;59503;53.486;10.196;2023-04-25T00:31:55;11.43;;;4.07;;
71665;SDS011;59503;53.486;10.196;2023-04-25T00:34:20;10.05;;;4.47;;
71665;SDS011;59503;53.486;10.196;2023-04-25T00:36:45;9.13;;;4.70;;
71665;SDS011;59503;53.486;10.196;2023-04-25T00:39:12;14.27;;;5.30;;
71665;SDS011;59503;53.486;10.196;2023-04-25T00:41:37;11.23;;;4.47;;
71665;SDS011;59503;53.486;10.196;2023-04-25T00:44:03;16.53;;;4.23;;
71665;SDS011;59503;53.486;10.196;2023-04-25T00:46:31;19.05;;;4.32;;
71665;SDS011;59503;53.486;10.196;2023-04-25T00:48:57;14.05;;;4.28;;
71665;SDS011;59503;53.486;10.196;2023-04-25T00:51:23;16.80;;;4.37;;
71665;SDS011;59503;53.486;10.196;2023-04-25T00:53:50;20.33;;;3.85;;
71665;SDS011;59503;53.486;10.196;2023-04-25T00:56:16;20.60;;;4.53;;
71665;SDS011;59503;53.486;10.196;2023-04-25T00:58:42;26.47;;;3.80;;
71665;SDS011;59503;53.486;10.196;2023-04-25T01:01:10;23.63;;;4.03;;
71665;SDS011;59503;53.486;10.196;2023-04-25T01:17:57;20.00;;;3.70;;
71665;SDS011;59503;53.486;10.196;2023-04-25T01:20:23;22.83;;;3.63;;
71665;SDS011;59503;53.486;10.196;2023-04-25T01:22:50;32.17;;;5.43;;
71665;SDS011;59503;53.486;10.196;2023-04-25T01:25:16;28.17;;;4.18;;
71665;SDS011;59503;53.486;10.196;2023-04-25T01:27:42;14.20;;;3.03;;
71665;SDS011;59503;53.486;10.196;2023-04-25T01:30:08;26.98;;;3.38;;
71665;SDS011;59503;53.486;10.196;2023-04-25T01:32:34;21.80;;;3.83;;
71665;SDS011;59503;53.486;10.196;2023-04-25T01:35:07;22.13;;;3.57;;
71665;SDS011;59503;53.486;10.196;2023-04-25T01:37:40;21.50;;;4.20;;
71665;SDS011;59503;53.486;10.196;2023-04-25T01:40:08;29.52;;;3.75;;
71665;SDS011;59503;53.486;10.196;2023-04-25T01:42:39;19.35;;;3.25;;
71665;SDS011;59503;53.486;10.196;2023-04-25T01:45:06;22.92;;;3.67;;
71665;SDS011;59503;53.486;10.196;2023-04-25T01:47:32;21.70;;;3.70;;
71665;SDS011;59503;53.486;10.196;2023-04-25T01:50:00;20.90;;;3.60;;
71665;SDS011;59503;53.486;10.196;2023-04-25T01:52:27;24.20;;;5.22;;
71665;SDS011;59503;53.486;10.196;2023-04-25T01:54:52;33.87;;;4.03;;
71665;SDS011;59503;53.486;10.196;2023-04-25T01:57:19;28.25;;;4.10;;
71665;SDS011;59503;53.486;10.196;2023-04-25T01:59:44;22.88;;;3.70;;
71665;SDS011;59503;53.486;10.196;2023-04-25T02:02:11;26.90;;;4.63;;
71665;SDS011;59503;53.486;10.196;2023-04-25T02:04:36;20.33;;;3.58;;
71665;SDS011;59503;53.486;10.196;2023-04-25T02:07:02;26.10;;;3.90;;
71665;SDS011;59503;53.486;10.196;2023-04-25T02:09:28;16.13;;;3.30;;
71665;SDS011;59503;53.486;10.196;2023-04-25T02:11:54;28.10;;;3.37;;
71665;SDS011;59503;53.486;10.196;2023-04-25T02:14:19;15.10;;;3.27;;
71665;SDS011;59503;53.486;10.196;2023-04-25T02:16:45;27.40;;;4.68;;
71665;SDS011;59503;53.486;10.196;2023-04-25T02:19:11;19.35;;;3.80;;
71665;SDS011;59503;53.486;10.196;2023-04-25T02:21:36;28.10;;;4.03;;
71665;SDS011;59503;53.486;10.196;2023-04-25T02:24:02;21.00;;;3.17;;
71665;SDS011;59503;53.486;10.196;2023-04-25T02:26:28;28.38;;;3.20;;
71665;SDS011;59503;53.486;10.196;2023-04-25T02:28:55;24.00;;;3.85;;
71665;SDS011;59503;53.486;10.196;2023-04-25T02:31:22;23.90;;;3.95;;
71665;SDS011;59503;53.486;10.196;2023-04-25T02:33:47;16.47;;;3.53;;
71665;SDS011;59503;53.486;10.196;2023-04-25T02:36:13;20.23;;;3.50;;
71665;SDS011;59503;53.486;10.196;2023-04-25T02:38:38;23.17;;;4.95;;
71665;SDS011;59503;53.486;10.196;2023-04-25T02:41:04;24.03;;;3.33;;
71665;SDS011;59503;53.486;10.196;2023-04-25T02:43:29;21.40;;;4.78;;
71665;SDS011;59503;53.486;10.196;2023-04-25T02:45:55;29.80;;;3.33;;
71665;SDS011;59503;53.486;10.196;2023-04-25T02:48:20;20.93;;;2.87;;
71665;SDS011;59503;53.486;10.196;2023-04-25T02:50:46;19.17;;;2.83;;
71665;SDS011;59503;53.486;10.196;2023-04-25T02:53:11;22.30;;;3.53;;
71665;SDS011;59503;53.486;10.196;2023-04-25T02:55:37;23.97;;;3.63;;
71665;SDS011;59503;53.486;10.196;2023-04-25T02:58:02;13.27;;;3.00;;
71665;SDS011;59503;53.486;10.196;2023-04-25T03:00:28;31.10;;;3.57;;
71665;SDS011;59503;53.486;10.196;2023-04-25T03:02:53;23.30;;;4.73;;
71665;SDS011;59503;53.486;10.196;2023-04-25T03:05:19;28.47;;;3.37;;
71665;SDS011;59503;53.486;10.196;2023-04-25T03:07:44;17.15;;;3.08;;
71665;SDS011;59503;53.486;10.196;2023-04-25T03:10:10;24.73;;;3.53;;
71665;SDS011;59503;53.486;10.196;2023-04-25T03:12:36;25.80;;;4.18;;
71665;SDS011;59503;53.486;10.196;2023-04-25T03:15:02;27.17;;;4.30;;
71665;SDS011;59503;53.486;10.196;2023-04-25T03:17:28;17.57;;;3.77;;
71665;SDS011;59503;53.486;10.196;2023-04-25T03:19:54;23.00;;;3.03;;
71665;SDS011;59503;53.486;10.196;2023-04-25T03:22:20;20.98;;;3.13;;
71665;SDS011;59503;53.486;10.196;2023-04-25T03:24:46;27.73;;;3.43;;
71665;SDS011;59503;53.486;10.196;2023-04-25T03:27:12;17.95;;;3.17;;
71665;SDS011;59503;53.486;10.196;2023-04-25T03:29:37;14.47;;;3.13;;
71665;SDS011;59503;53.486;10.196;2023-04-25T03:32:03;20.37;;;2.40;;
71665;SDS011;59503;53.486;10.196;2023-04-25T03:34:28;18.00;;;3.10;;
71665;SDS011;59503;53.486;10.196;2023-04-25T03:36:54;20.00;;;2.83;;
71665;SDS011;59503;53.486;10.196;2023-04-25T03:39:20;22.25;;;2.33;;
71665;SDS011;59503;53.486;10.196;2023-04-25T03:41:45;18.47;;;3.07;;
71665;SDS011;59503;53.486;10.196;2023-04-25T03:44:11;20.77;;;2.72;;
71665;SDS011;59503;53.486;10.196;2023-04-25T03:46:36;29.33;;;3.13;;
71665;SDS011;59503;53.486;10.196;2023-04-25T03:49:02;14.67;;;3.07;;
71665;SDS011;59503;53.486;10.196;2023-04-25T03:51:27;26.25;;;3.20;;
71665;SDS011;59503;53.486;10.196;2023-04-25T03:53:53;19.10;;;2.87;;
71665;SDS011;59503;53.486;10.196;2023-04-25T03:56:18;14.43;;;3.27;;
71665;SDS011;59503;53.486;10.196;2023-04-25T03:58:45;13.13;;;2.30;;
71665;SDS011;59503;53.486;10.196;2023-04-25T04:01:10;17.75;;;3.22;;
71665;SDS011;59503;53.486;10.196;2023-04-25T04:03:36;23.13;;;3.40;;
71665;SDS011;59503;53.486;10.196;2023-04-25T04:06:03;17.63;;;2.53;;
71665;SDS011;59503;53.486;10.196;2023-04-25T04:08:29;21.55;;;3.00;;
71665;SDS011;59503;53.486;10.196;2023-04-25T04:10:55;22.90;;;2.43;;
71665;SDS011;59503;53.486;10.196;2023-04-25T04:13:22;16.73;;;3.10;;
71665;SDS011;59503;53.486;10.196;2023-04-25T04:15:47;26.00;;;3.40;;
71665;SDS011;59503;53.486;10.196;2023-04-25T04:18:13;20.75;;;2.67;;
71665;SDS011;59503;53.486;10.196;2023-04-25T04:20:38;13.23;;;2.73;;
71665;SDS011;59503;53.486;10.196;2023-04-25T04:23:04;15.93;;;2.03;;
71665;SDS011;59503;53.486;10.196;2023-04-25T04:25:30;17.63;;;2.85;;
71665;SDS011;59503;53.486;10.196;2023-04-25T04:27:55;14.53;;;1.97;;
71665;SDS011;59503;53.486;10.196;2023-04-25T04:30:24;23.35;;;2.40;;
71665;SDS011;59503;53.486;10.196;2023-04-25T04:32:51;19.58;;;2.40;;
71665;SDS011;59503;53.486;10.196;2023-04-25T04:35:17;20.93;;;2.23;;
71665;SDS011;59503;53.486;10.196;2023-04-25T04:37:42;18.40;;;2.40;;
71665;SDS011;59503;53.486;10.196;2023-04-25T04:40:09;17.13;;;2.72;;
71665;SDS011;59503;53.486;10.196;2023-04-25T04:42:34;17.07;;;2.50;;
71665;SDS011;59503;53.486;10.196;2023-04-25T04:45:01;14.75;;;2.47;;
71665;SDS011;59503;53.486;10.196;2023-04-25T04:47:28;18.30;;;2.65;;
71665;SDS011;59503;53.486;10.196;2023-04-25T04:49:56;16.85;;;2.40;;
71665;SDS011;59503;53.486;10.196;2023-04-25T04:52:22;13.45;;;2.28;;
71665;SDS011;59503;53.486;10.196;2023-04-25T04:54:47;13.57;;;2.83;;
71665;SDS011;59503;53.486;10.196;2023-04-25T04:57:13;14.83;;;2.57;;
71665;SDS011;59503;53.486;10.196;2023-04-25T04:59:38;13.00;;;2.50;;
71665;SDS011;59503;53.486;10.196;2023-04-25T05:02:04;23.17;;;2.37;;
71665;SDS011;59503;53.486;10.196;2023-04-25T05:04:30;17.00;;;2.57;;
71665;SDS011;59503;53.486;10.196;2023-04-25T05:06:55;10.45;;;1.88;;
71665;SDS011;59503;53.486;10.196;2023-04-25T05:09:21;15.63;;;2.63;;
71665;SDS011;59503;53.486;10.196;2023-04-25T05:11:50;14.32;;;2.08;;
71665;SDS011;59503;53.486;10.196;2023-04-25T05:14:16;15.02;;;2.45;;
71665;SDS011;59503;53.486;10.196;2023-04-25T05:16:42;17.30;;;2.97;;
71665;SDS011;59503;53.486;10.196;2023-04-25T05:19:08;20.45;;;2.08;;
71665;SDS011;59503;53.486;10.196;2023-04-25T05:21:34;17.52;;;1.98;;
71665;SDS011;59503;53.486;10.196;2023-04-25T05:24:00;17.33;;;2.00;;
71665;SDS011;59503;53.486;10.196;2023-04-25T05:26:25;20.33;;;2.40;;
71665;SDS011;59503;53.486;10.196;2023-04-25T05:28:51;16.80;;;2.07;;
71665;SDS011;59503;53.486;10.196;2023-04-25T05:31:16;17.60;;;2.20;;
71665;SDS011;59503;53.486;10.196;2023-04-25T05:33:42;10.60;;;1.70;;
71665;SDS011;59503;53.486;10.196;2023-04-25T05:36:07;18.27;;;2.30;;
71665;SDS011;59503;53.486;10.196;2023-04-25T05:38:33;16.03;;;1.97;;
71665;SDS011;59503;53.486;10.196;2023-04-25T05:40:58;21.00;;;3.50;;
71665;SDS011;59503;53.486;10.196;2023-04-25T05:43:24;16.27;;;2.23;;
71665;SDS011;59503;53.486;10.196;2023-04-25T05:45:49;23.33;;;2.63;;
71665;SDS011;59503;53.486;10.196;2023-04-25T05:48:15;12.82;;;3.28;;
71665;SDS011;59503;53.486;10.196;2023-04-25T05:50:40;15.83;;;2.33;;
71665;SDS011;59503;53.486;10.196;2023-04-25T05:53:06;12.07;;;2.10;;
71665;SDS011;59503;53.486;10.196;2023-04-25T05:55:31;15.13;;;1.90;;
71665;SDS011;59503;53.486;10.196;2023-04-25T05:57:57;13.60;;;2.10;;
71665;SDS011;59503;53.486;10.196;2023-04-25T06:00:22;14.10;;;2.30;;
71665;SDS011;59503;53.486;10.196;2023-04-25T06:02:48;17.05;;;2.08;;
71665;SDS011;59503;53.486;10.196;2023-04-25T06:05:14;20.77;;;2.07;;
71665;SDS011;59503;53.486;10.196;2023-04-25T06:07:39;12.77;;;2.25;;
71665;SDS011;59503;53.486;10.196;2023-04-25T06:10:05;21.13;;;2.27;;
71665;SDS011;59503;53.486;10.196;2023-04-25T06:12:34;18.77;;;2.53;;
71665;SDS011;59503;53.486;10.196;2023-04-25T06:15:00;15.00;;;2.38;;
71665;SDS011;59503;53.486;10.196;2023-04-25T06:17:26;10.90;;;1.77;;
71665;SDS011;59503;53.486;10.196;2023-04-25T06:19:51;13.52;;;2.05;;
71665;SDS011;59503;53.486;10.196;2023-04-25T06:22:16;9.10;;;1.80;;
71665;SDS011;59503;53.486;10.196;2023-04-25T06:24:42;15.00;;;2.17;;
71665;SDS011;59503;53.486;10.196;2023-04-25T06:27:07;13.00;;;2.40;;
71665;SDS011;59503;53.486;10.196;2023-04-25T06:29:33;13.00;;;1.67;;
71665;SDS011;59503;53.486;10.196;2023-04-25T06:31:58;10.80;;;2.37;;
71665;SDS011;59503;53.486;10.196;2023-04-25T06:34:24;10.17;;;1.83;;
71665;SDS011;59503;53.486;10.196;2023-04-25T06:36:49;16.90;;;2.65;;
71665;SDS011;59503;53.486;10.196;2023-04-25T06:39:15;16.03;;;2.20;;
71665;SDS011;59503;53.486;10.196;2023-04-25T06:41:41;18.95;;;2.15;;
71665;SDS011;59503;53.486;10.196;2023-04-25T06:44:06;14.10;;;2.07;;
71665;SDS011;59503;53.486;10.196;2023-04-25T06:46:32;11.98;;;1.90;;
71665;SDS011;59503;53.486;10.196;2023-04-25T06:48:58;15.20;;;2.40;;
71665;SDS011;59503;53.486;10.196;2023-04-25T06:51:23;21.55;;;2.55;;
71665;SDS011;59503;53.486;10.196;2023-04-25T06:53:49;9.23;;;1.90;;
71665;SDS011;59503;53.486;10.196;2023-04-25T06:56:15;13.27;;;1.92;;
71665;SDS011;59503;53.486;10.196;2023-04-25T06:58:41;18.80;;;2.75;;
71665;SDS011;59503;53.486;10.196;2023-04-25T07:01:06;10.60;;;2.20;;
71665;SDS011;59503;53.486;10.196;2023-04-25T07:03:32;9.18;;;2.08;;
71665;SDS011;59503;53.486;10.196;2023-04-25T07:05:57;15.27;;;1.93;;
71665;SDS011;59503;53.486;10.196;2023-04-25T07:08:23;12.40;;;1.90;;
71665;SDS011;59503;53.486;10.196;2023-04-25T07:10:48;11.65;;;1.73;;
71665;SDS011;59503;53.486;10.196;2023-04-25T07:13:14;11.37;;;1.87;;
71665;SDS011;59503;53.486;10.196;2023-04-25T07:15:39;9.93;;;1.90;;
71665;SDS011;59503;53.486;10.196;2023-04-25T07:18:05;13.27;;;2.13;;
71665;SDS011;59503;53.486;10.196;2023-04-25T07:20:30;7.68;;;1.65;;
71665;SDS011;59503;53.486;10.196;2023-04-25T07:22:56;11.77;;;1.83;;
71665;SDS011;59503;53.486;10.196;2023-04-25T07:25:22;11.15;;;2.30;;
71665;SDS011;59503;53.486;10.196;2023-04-25T07:27:48;9.47;;;2.37;;
71665;SDS011;59503;53.486;10.196;2023-04-25T07:30:13;10.93;;;2.40;;
71665;SDS011;59503;53.486;10.196;2023-04-25T07:32:39;14.97;;;2.33;;
71665;SDS011;59503;53.486;10.196;2023-04-25T07:35:05;17.63;;;2.13;;
71665;SDS011;59503;53.486;10.196;2023-04-25T07:37:32;12.82;;;1.95;;
71665;SDS011;59503;53.486;10.196;2023-04-25T07:39:58;13.47;;;2.03;;
71665;SDS011;59503;53.486;10.196;2023-04-25T07:42:24;14.20;;;1.88;;
71665;SDS011;59503;53.486;10.196;2023-04-25T07:44:49;13.27;;;2.27;;
71665;SDS011;59503;53.486;10.196;2023-04-25T07:47:16;14.45;;;2.47;;
71665;SDS011;59503;53.486;10.196;2023-04-25T07:49:44;13.40;;;1.35;;
71665;SDS011;59503;53.486;10.196;2023-04-25T07:52:10;7.25;;;1.50;;
71665;SDS011;59503;53.486;10.196;2023-04-25T07:54:36;14.57;;;1.57;;
71665;SDS011;59503;53.486;10.196;2023-04-25T07:57:01;7.93;;;1.37;;
71665;SDS011;59503;53.486;10.196;2023-04-25T07:59:27;14.18;;;1.90;;
71665;SDS011;59503;53.486;10.196;2023-04-25T08:01:52;11.20;;;1.27;;
71665;SDS011;59503;53.486;10.196;2023-04-25T08:04:18;8.73;;;1.40;;
71665;SDS011;59503;53.486;10.196;2023-04-25T08:06:43;11.53;;;1.60;;
71665;SDS011;59503;53.486;10.196;2023-04-25T08:09:09;11.00;;;1.70;;
71665;SDS011;59503;53.486;10.196;2023-04-25T08:11:35;13.38;;;1.63;;
71665;SDS011;59503;53.486;10.196;2023-04-25T08:14:01;14.57;;;2.63;;
71665;SDS011;59503;53.486;10.196;2023-04-25T08:16:27;11.30;;;1.80;;
71665;SDS011;59503;53.486;10.196;2023-04-25T08:18:52;7.43;;;1.38;;
71665;SDS011;59503;53.486;10.196;2023-04-25T08:21:18;8.90;;;1.63;;
71665;SDS011;59503;53.486;10.196;2023-04-25T08:23:43;14.17;;;1.70;;
71665;SDS011;59503;53.486;10.196;2023-04-25T08:26:09;9.82;;;1.30;;
71665;SDS011;59503;53.486;10.196;2023-04-25T08:28:34;14.37;;;1.47;;
71665;SDS011;59503;53.486;10.196;2023-04-25T08:30:59;18.07;;;2.10;;
71665;SDS011;59503;53.486;10.196;2023-04-25T08:33:25;10.43;;;1.60;;
71665;SDS011;59503;53.486;10.196;2023-04-25T08:35:50;7.82;;;1.10;;
71665;SDS011;59503;53.486;10.196;2023-04-25T08:38:16;9.57;;;1.20;;
71665;SDS011;59503;53.486;10.196;2023-04-25T08:40:42;12.38;;;1.83;;
71665;SDS011;59503;53.486;10.196;2023-04-25T08:43:08;5.65;;;1.00;;
71665;SDS011;59503;53.486;10.196;2023-04-25T08:45:41;11.00;;;1.10;;
71665;SDS011;59503;53.486;10.196;2023-04-25T08:48:07;13.80;;;1.60;;
71665;SDS011;59503;53.486;10.196;2023-04-25T08:50:39;10.57;;;2.00;;
71665;SDS011;59503;53.486;10.196;2023-04-25T08:53:10;9.65;;;1.50;;
71665;SDS011;59503;53.486;10.196;2023-04-25T08:55:43;13.35;;;1.27;;
71665;SDS011;59503;53.486;10.196;2023-04-25T08:58:11;10.20;;;1.02;;
71665;SDS011;59503;53.486;10.196;2023-04-25T09:00:36;5.23;;;0.97;;
71665;SDS011;59503;53.486;10.196;2023-04-25T09:03:02;9.77;;;1.20;;
71665;SDS011;59503;53.486;10.196;2023-04-25T09:05:28;9.45;;;1.70;;
71665;SDS011;59503;53.486;10.196;2023-04-25T09:07:54;10.50;;;1.98;;
71665;SDS011;59503;53.486;10.196;2023-04-25T09:10:21;7.35;;;0.90;;
71665;SDS011;59503;53.486;10.196;2023-04-25T09:15:32;7.60;;;1.50;;
71665;SDS011;59503;53.486;10.196;2023-04-25T09:17:58;5.65;;;0.90;;
71665;SDS011;59503;53.486;10.196;2023-04-25T09:20:24;8.88;;;1.10;;
71665;SDS011;59503;53.486;10.196;2023-04-25T09:23:03;5.03;;;1.20;;
71665;SDS011;59503;53.486;10.196;2023-04-25T09:25:36;5.38;;;0.80;;
71665;SDS011;59503;53.486;10.196;2023-04-25T09:28:05;4.95;;;0.55;;
71665;SDS011;59503;53.486;10.196;2023-04-25T09:30:32;3.03;;;0.57;;
71665;SDS011;59503;53.486;10.196;2023-04-25T09:33:06;9.70;;;0.90;;
71665;SDS011;59503;53.486;10.196;2023-04-25T09:35:36;3.75;;;0.60;;
71665;SDS011;59503;53.486;10.196;2023-04-25T09:38:10;3.70;;;0.60;;
71665;SDS011;59503;53.486;10.196;2023-04-25T09:40:39;3.92;;;0.50;;
71665;SDS011;59503;53.486;10.196;2023-04-25T09:43:21;5.75;;;0.68;;
71665;SDS011;59503;53.486;10.196;2023-04-25T09:45:50;3.80;;;0.60;;
71665;SDS011;59503;53.486;10.196;2023-04-25T09:48:18;5.20;;;1.48;;
71665;SDS011;59503;53.486;10.196;2023-04-25T09:50:45;6.07;;;1.23;;
71665;SDS011;59503;53.486;10.196;2023-04-25T09:53:28;9.60;;;1.25;;
71665;SDS011;59503;53.486;10.196;2023-04-25T09:55:54;6.73;;;0.90;;
71665;SDS011;59503;53.486;10.196;2023-04-25T09:58:21;8.82;;;0.90;;
71665;SDS011;59503;53.486;10.196;2023-04-25T10:00:49;12.18;;;1.80;;
71665;SDS011;59503;53.486;10.196;2023-04-25T10:03:17;6.78;;;0.95;;
71665;SDS011;59503;53.486;10.196;2023-04-25T10:05:43;9.13;;;1.20;;
71665;SDS011;59503;53.486;10.196;2023-04-25T10:08:09;12.03;;;1.30;;
71665;SDS011;59503;53.486;10.196;2023-04-25T10:10:37;7.00;;;1.10;;
71665;SDS011;59503;53.486;10.196;2023-04-25T10:13:05;5.55;;;1.33;;
71665;SDS011;59503;53.486;10.196;2023-04-25T10:15:34;8.75;;;1.23;;
71665;SDS011;59503;53.486;10.196;2023-04-25T10:18:03;8.38;;;0.98;;
71665;SDS011;59503;53.486;10.196;2023-04-25T10:20:30;6.57;;;1.27;;
71665;SDS011;59503;53.486;10.196;2023-04-25T10:22:57;9.30;;;1.55;;
71665;SDS011;59503;53.486;10.196;2023-04-25T10:25:38;6.32;;;1.10;;
71665;SDS011;59503;53.486;10.196;2023-04-25T10:28:05;5.97;;;0.95;;
71665;SDS011;59503;53.486;10.196;2023-04-25T10:30:31;10.30;;;1.38;;
71665;SDS011;59503;53.486;10.196;2023-04-25T10:32:58;7.23;;;1.53;;
71665;SDS011;59503;53.486;10.196;2023-04-25T10:35:25;5.47;;;1.08;;
71665;SDS011;59503;53.486;10.196;2023-04-25T10:38:05;5.83;;;1.03;;
71665;SDS011;59503;53.486;10.196;2023-04-25T10:40:35;6.88;;;0.70;;
71665;SDS011;59503;53.486;10.196;2023-04-25T10:46:14;6.25;;;0.68;;
71665;SDS011;59503;53.486;10.196;2023-04-25T10:48:54;3.33;;;0.60;;
71665;SDS011;59503;53.486;10.196;2023-04-25T10:53:56;5.75;;;0.77;;
71665;SDS011;59503;53.486;10.196;2023-04-25T10:56:27;3.85;;;0.80;;
71665;SDS011;59503;53.486;10.196;2023-04-25T11:01:43;11.57;;;0.90;;
71665;SDS011;59503;53.486;10.196;2023-04-25T11:04:19;4.43;;;0.73;;
71665;SDS011;59503;53.486;10.196;2023-04-25T11:09:29;5.32;;;0.82;;
71665;SDS011;59503;53.486;10.196;2023-04-25T11:11:55;5.23;;;0.83;;
71665;SDS011;59503;53.486;10.196;2023-04-25T11:14:23;5.88;;;0.90;;
71665;SDS011;59503;53.486;10.196;2023-04-25T11:16:55;4.25;;;0.90;;
71665;SDS011;59503;53.486;10.196;2023-04-25T11:19:21;7.40;;;1.23;;
71665;SDS011;59503;53.486;10.196;2023-04-25T11:21:48;4.90;;;0.83;;
71665;SDS011;59503;53.486;10.196;2023-04-25T11:24:13;7.05;;;1.02;;
71665;SDS011;59503;53.486;10.196;2023-04-25T11:26:42;5.80;;;1.03;;
71665;SDS011;59503;53.486;10.196;2023-04-25T11:29:11;9.65;;;1.20;;
71665;SDS011;59503;53.486;10.196;2023-04-25T11:31:37;9.27;;;1.00;;
71665;SDS011;59503;53.486;10.196;2023-04-25T11:34:02;7.10;;;1.48;;
71665;SDS011;59503;53.486;10.196;2023-04-25T11:36:28;7.17;;;1.33;;
71665;SDS011;59503;53.486;10.196;2023-04-25T11:38:53;8.00;;;1.27;;
71665;SDS011;59503;53.486;10.196;2023-04-25T11:41:19;5.10;;;1.07;;
71665;SDS011;59503;53.486;10.196;2023-04-25T11:43:45;9.43;;;1.35;;
71665;SDS011;59503;53.486;10.196;2023-04-25T11:46:11;7.53;;;0.90;;
71665;SDS011;59503;53.486;10.196;2023-04-25T11:48:40;4.53;;;0.80;;
71665;SDS011;59503;53.486;10.196;2023-04-25T11:51:06;10.30;;;0.80;;
71665;SDS011;59503;53.486;10.196;2023-04-25T11:53:32;6.90;;;0.90;;
71665;SDS011;59503;53.486;10.196;2023-04-25T11:55:58;9.17;;;0.70;;
71665;SDS011;59503;53.486;10.196;2023-04-25T11:58:23;2.43;;;0.50;;
71665;SDS011;59503;53.486;10.196;2023-04-25T12:00:48;2.33;;;0.43;;
71665;SDS011;59503;53.486;10.196;2023-04-25T12:03:14;5.50;;;0.70;;
71665;SDS011;59503;53.486;10.196;2023-04-25T12:05:40;2.73;;;0.50;;
71665;SDS011;59503;53.486;10.196;2023-04-25T12:08:12;2.85;;;0.50;;
71665;SDS011;59503;53.486;10.196;2023-04-25T12:10:39;3.55;;;0.50;;
71665;SDS011;59503;53.486;10.196;2023-04-25T12:15:47;7.25;;;0.60;;
71665;SDS011;59503;53.486;10.196;2023-04-25T12:18:14;9.10;;;1.00;;
71665;SDS011;59503;53.486;10.196;2023-04-25T12:20:39;10.05;;;0.70;;
71665;SDS011;59503;53.486;10.196;2023-04-25T12:23:06;3.60;;;0.57;;
71665;SDS011;59503;53.486;10.196;2023-04-25T12:25:37;5.82;;;1.00;;
71665;SDS011;59503;53.486;10.196;2023-04-25T12:28:23;5.88;;;0.80;;
71665;SDS011;59503;53.486;10.196;2023-04-25T12:31:02;4.15;;;1.20;;
71665;SDS011;59503;53.486;10.196;2023-04-25T12:33:30;6.68;;;0.90;;
71665;SDS011;59503;53.486;10.196;2023-04-25T12:35:57;5.97;;;1.00;;
71665;SDS011;59503;53.486;10.196;2023-04-25T12:38:24;9.45;;;0.80;;
71665;SDS011;59503;53.486;10.196;2023-04-25T12:40:51;5.82;;;0.70;;
71665;SDS011;59503;53.486;10.196;2023-04-25T12:43:17;3.05;;;0.75;;
71665;SDS011;59503;53.486;10.196;2023-04-25T12:45:43;4.28;;;0.82;;
71665;SDS011;59503;53.486;10.196;2023-04-25T12:48:09;3.90;;;0.60;;
71665;SDS011;59503;53.486;10.196;2023-04-25T12:50:35;6.85;;;0.82;;
71665;SDS011;59503;53.486;10.196;2023-04-25T12:53:00;4.03;;;0.80;;
71665;SDS011;59503;53.486;10.196;2023-04-25T12:55:26;5.67;;;0.70;;
71665;SDS011;59503;53.486;10.196;2023-04-25T12:57:51;6.53;;;0.90;;
71665;SDS011;59503;53.486;10.196;2023-04-25T13:00:17;5.33;;;1.10;;
71665;SDS011;59503;53.486;10.196;2023-04-25T13:02:45;5.20;;;0.65;;
71665;SDS011;59503;53.486;10.196;2023-04-25T13:05:11;5.80;;;0.80;;
71665;SDS011;59503;53.486;10.196;2023-04-25T13:07:37;6.28;;;0.77;;
71665;SDS011;59503;53.486;10.196;2023-04-25T13:10:03;4.30;;;0.70;;
71665;SDS011;59503;53.486;10.196;2023-04-25T13:12:30;2.75;;;0.93;;
71665;SDS011;59503;53.486;10.196;2023-04-25T13:14:56;5.35;;;0.70;;
71665;SDS011;59503;53.486;10.196;2023-04-25T13:17:22;10.67;;;1.17;;
71665;SDS011;59503;53.486;10.196;2023-04-25T13:19:47;8.33;;;1.33;;
71665;SDS011;59503;53.486;10.196;2023-04-25T13:22:12;7.17;;;1.10;;
71665;SDS011;59503;53.486;10.196;2023-04-25T13:24:40;4.05;;;1.10;;
71665;SDS011;59503;53.486;10.196;2023-04-25T13:27:05;8.27;;;1.63;;
71665;SDS011;59503;53.486;10.196;2023-04-25T13:29:31;9.17;;;1.13;;
71665;SDS011;59503;53.486;10.196;2023-04-25T13:31:59;7.50;;;1.30;;
71665;SDS011;59503;53.486;10.196;2023-04-25T13:34:24;4.77;;;0.80;;
71665;SDS011;59503;53.486;10.196;2023-04-25T13:36:50;5.10;;;1.00;;
71665;SDS011;59503;53.486;10.196;2023-04-25T13:39:15;5.63;;;1.20;;
71665;SDS011;59503;53.486;10.196;2023-04-25T13:41:41;5.17;;;1.00;;
71665;SDS011;59503;53.486;10.196;2023-04-25T13:44:06;7.88;;;0.60;;
71665;SDS011;59503;53.486;10.196;2023-04-25T13:46:31;6.80;;;0.70;;
71665;SDS011;59503;53.486;10.196;2023-04-25T13:48:57;5.63;;;1.00;;
71665;SDS011;59503;53.486;10.196;2023-04-25T13:51:22;8.77;;;0.77;;
71665;SDS011;59503;53.486;10.196;2023-04-25T13:53:48;7.45;;;0.93;;
71665;SDS011;59503;53.486;10.196;2023-04-25T13:56:13;5.27;;;1.40;;
71665;SDS011;59503;53.486;10.196;2023-04-25T13:58:39;10.47;;;1.47;;
71665;SDS011;59503;53.486;10.196;2023-04-25T14:01:04;5.97;;;1.10;;
71665;SDS011;59503;53.486;10.196;2023-04-25T14:03:30;8.00;;;1.80;;
71665;SDS011;59503;53.486;10.196;2023-04-25T14:05:56;6.82;;;1.13;;
71665;SDS011;59503;53.486;10.196;2023-04-25T14:08:21;8.93;;;1.67;;
71665;SDS011;59503;53.486;10.196;2023-04-25T14:10:47;10.82;;;2.22;;
71665;SDS011;59503;53.486;10.196;2023-04-25T14:13:13;4.90;;;1.13;;
71665;SDS011;59503;53.486;10.196;2023-04-25T14:15:38;6.85;;;0.63;;
71665;SDS011;59503;53.486;10.196;2023-04-25T14:18:03;3.63;;;0.93;;
71665;SDS011;59503;53.486;10.196;2023-04-25T14:20:29;8.37;;;0.90;;
71665;SDS011;59503;53.486;10.196;2023-04-25T14:22:55;6.75;;;1.20;;
71665;SDS011;59503;53.486;10.196;2023-04-25T14:25:22;8.80;;;1.00;;
71665;SDS011;59503;53.486;10.196;2023-04-25T14:27:48;8.40;;;1.40;;
71665;SDS011;59503;53.486;10.196;2023-04-25T14:30:18;6.07;;;1.00;;
71665;SDS011;59503;53.486;10.196;2023-04-25T14:32:45;8.10;;;1.15;;
71665;SDS011;59503;53.486;10.196;2023-04-25T14:35:11;6.25;;;1.23;;
71665;SDS011;59503;53.486;10.196;2023-04-25T14:37:37;7.50;;;1.27;;
71665;SDS011;59503;53.486;10.196;2023-04-25T14:40:02;8.25;;;1.38;;
71665;SDS011;59503;53.486;10.196;2023-04-25T14:42:29;8.98;;;0.95;;
71665;SDS011;59503;53.486;10.196;2023-04-25T14:44:55;8.17;;;1.03;;
71665;SDS011;59503;53.486;10.196;2023-04-25T14:47:20;6.37;;;1.10;;
71665;SDS011;59503;53.486;10.196;2023-04-25T14:49:46;13.30;;;2.10;;
71665;SDS011;59503;53.486;10.196;2023-04-25T14:52:18;6.70;;;1.00;;